sensor_id;sensor_type;location;lat;lon;timestamp;P1;durP1;ratioP1;P2;durP2;ratioP2
9508;SDS011;4792;50.088;8.122;2023-06-22T00:00:53;8.18;;;5.63;;
9508;SDS011;4792;50.088;8.122;2023-06-22T00:03:22;6.50;;;5.80;;
9508;SDS011;4792;50.088;8.122;2023-06-22T00:05:51;6.22;;;5.60;;
9508;SDS011;4792;50.088;8.122;2023-06-22T00:08:19;5.65;;;5.15;;
9508;SDS011;4792;50.088;8.122;2023-06-22T00:10:49;6.72;;;5.78;;
9508;SDS011;4792;50.088;8.122;2023-06-22T00:13:17;8.07;;;5.43;;
9508;SDS011;4792;50.088;8.122;2023-06-22T00:15:45;5.38;;;4.88;;
9508;SDS011;4792;50.088;8.122;2023-06-22T00:18:13;7.15;;;5.63;;
9508;SDS011;4792;50.088;8.122;2023-06-22T00:20:41;7.20;;;6.07;;
9508;SDS011;4792;50.088;8.122;2023-06-22T00:23:12;10.10;;;5.30;;
9508;SDS011;4792;50.088;8.122;2023-06-22T00:25:42;5.82;;;5.22;;
9508;SDS011;4792;50.088;8.122;2023-06-22T00:28:11;6.10;;;5.50;;
9508;SDS011;4792;50.088;8.122;2023-06-22T00:30:39;7.22;;;5.28;;
9508;SDS011;4792;50.088;8.122;2023-06-22T00:33:07;6.68;;;5.35;;
9508;SDS011;4792;50.088;8.122;2023-06-22T00:35:35;7.45;;;5.72;;
9508;SDS011;4792;50.088;8.122;2023-06-22T00:38:03;6.15;;;5.55;;
9508;SDS011;4792;50.088;8.122;2023-06-22T00:40:31;7.72;;;5.35;;
9508;SDS011;4792;50.088;8.122;2023-06-22T00:43:00;7.30;;;5.78;;
9508;SDS011;4792;50.088;8.122;2023-06-22T00:45:29;8.82;;;6.30;;
9508;SDS011;4792;50.088;8.122;2023-06-22T00:47:57;7.35;;;5.95;;
9508;SDS011;4792;50.088;8.122;2023-06-22T00:50:26;6.82;;;6.22;;
9508;SDS011;4792;50.088;8.122;2023-06-22T00:53:01;6.40;;;5.80;;
9508;SDS011;4792;50.088;8.122;2023-06-22T00:55:35;7.15;;;5.72;;
9508;SDS011;4792;50.088;8.122;2023-06-22T00:58:05;8.87;;;6.20;;
9508;SDS011;4792;50.088;8.122;2023-06-22T01:00:38;8.18;;;6.28;;
9508;SDS011;4792;50.088;8.122;2023-06-22T01:03:07;7.33;;;6.17;;
9508;SDS011;4792;50.088;8.122;2023-06-22T01:05:37;6.70;;;5.70;;
9508;SDS011;4792;50.088;8.122;2023-06-22T01:08:08;9.63;;;6.10;;
9508;SDS011;4792;50.088;8.122;2023-06-22T01:10:43;8.47;;;7.23;;
9508;SDS011;4792;50.088;8.122;2023-06-22T01:13:16;8.38;;;7.03;;
9508;SDS011;4792;50.088;8.122;2023-06-22T01:15:49;7.40;;;6.68;;
9508;SDS011;4792;50.088;8.122;2023-06-22T01:18:19;8.73;;;7.03;;
9508;SDS011;4792;50.088;8.122;2023-06-22T01:20:47;7.93;;;7.13;;
9508;SDS011;4792;50.088;8.122;2023-06-22T01:23:17;11.40;;;7.55;;
9508;SDS011;4792;50.088;8.122;2023-06-22T01:25:53;10.13;;;7.80;;
9508;SDS011;4792;50.088;8.122;2023-06-22T01:28:38;14.82;;;7.75;;
9508;SDS011;4792;50.088;8.122;2023-06-22T01:31:10;8.85;;;6.90;;
9508;SDS011;4792;50.088;8.122;2023-06-22T01:33:39;7.50;;;6.80;;
9508;SDS011;4792;50.088;8.122;2023-06-22T01:36:09;7.53;;;6.83;;
9508;SDS011;4792;50.088;8.122;2023-06-22T01:38:37;8.10;;;7.25;;
9508;SDS011;4792;50.088;8.122;2023-06-22T01:41:06;8.27;;;7.27;;
9508;SDS011;4792;50.088;8.122;2023-06-22T01:43:33;7.70;;;6.77;;
9508;SDS011;4792;50.088;8.122;2023-06-22T01:46:03;7.10;;;6.40;;
9508;SDS011;4792;50.088;8.122;2023-06-22T01:48:32;8.63;;;7.73;;
9508;SDS011;4792;50.088;8.122;2023-06-22T01:51:00;9.32;;;7.47;;
9508;SDS011;4792;50.088;8.122;2023-06-22T01:53:28;9.50;;;8.30;;
9508;SDS011;4792;50.088;8.122;2023-06-22T01:55:56;9.43;;;8.47;;
9508;SDS011;4792;50.088;8.122;2023-06-22T01:58:25;8.80;;;7.97;;
9508;SDS011;4792;50.088;8.122;2023-06-22T02:00:56;10.63;;;8.67;;
9508;SDS011;4792;50.088;8.122;2023-06-22T02:03:31;9.20;;;7.63;;
9508;SDS011;4792;50.088;8.122;2023-06-22T02:06:03;8.83;;;7.63;;
9508;SDS011;4792;50.088;8.122;2023-06-22T02:08:35;8.53;;;7.63;;
9508;SDS011;4792;50.088;8.122;2023-06-22T02:11:05;8.33;;;7.47;;
9508;SDS011;4792;50.088;8.122;2023-06-22T02:13:34;7.80;;;7.10;;
9508;SDS011;4792;50.088;8.122;2023-06-22T02:16:02;9.10;;;8.20;;
9508;SDS011;4792;50.088;8.122;2023-06-22T02:18:32;10.13;;;8.33;;
9508;SDS011;4792;50.088;8.122;2023-06-22T02:21:02;9.40;;;8.40;;
9508;SDS011;4792;50.088;8.122;2023-06-22T02:23:30;8.30;;;7.50;;
9508;SDS011;4792;50.088;8.122;2023-06-22T02:25:59;9.27;;;7.90;;
9508;SDS011;4792;50.088;8.122;2023-06-22T02:28:27;9.40;;;8.10;;
9508;SDS011;4792;50.088;8.122;2023-06-22T02:30:55;9.77;;;8.53;;
9508;SDS011;4792;50.088;8.122;2023-06-22T02:33:22;8.60;;;7.80;;
9508;SDS011;4792;50.088;8.122;2023-06-22T02:35:52;9.70;;;8.70;;
9508;SDS011;4792;50.088;8.122;2023-06-22T02:38:19;9.70;;;8.70;;
9508;SDS011;4792;50.088;8.122;2023-06-22T02:40:47;14.93;;;8.37;;
9508;SDS011;4792;50.088;8.122;2023-06-22T02:43:15;9.43;;;8.43;;
9508;SDS011;4792;50.088;8.122;2023-06-22T02:45:43;8.77;;;7.97;;
9508;SDS011;4792;50.088;8.122;2023-06-22T02:48:11;9.27;;;8.37;;
9508;SDS011;4792;50.088;8.122;2023-06-22T02:50:39;9.50;;;8.50;;
9508;SDS011;4792;50.088;8.122;2023-06-22T02:53:08;9.80;;;8.80;;
9508;SDS011;4792;50.088;8.122;2023-06-22T02:55:36;10.20;;;9.10;;
9508;SDS011;4792;50.088;8.122;2023-06-22T02:58:06;9.10;;;8.20;;
9508;SDS011;4792;50.088;8.122;2023-06-22T03:00:34;9.97;;;8.97;;
9508;SDS011;4792;50.088;8.122;2023-06-22T03:03:02;10.30;;;9.30;;
9508;SDS011;4792;50.088;8.122;2023-06-22T03:05:30;9.97;;;8.77;;
9508;SDS011;4792;50.088;8.122;2023-06-22T03:07:59;9.20;;;8.30;;
9508;SDS011;4792;50.088;8.122;2023-06-22T03:10:28;9.00;;;8.10;;
9508;SDS011;4792;50.088;8.122;2023-06-22T03:12:56;10.57;;;9.20;;
9508;SDS011;4792;50.088;8.122;2023-06-22T03:15:24;9.13;;;8.23;;
9508;SDS011;4792;50.088;8.122;2023-06-22T03:17:52;8.93;;;8.03;;
9508;SDS011;4792;50.088;8.122;2023-06-22T03:20:20;8.97;;;8.10;;
9508;SDS011;4792;50.088;8.122;2023-06-22T03:22:48;10.00;;;8.63;;
9508;SDS011;4792;50.088;8.122;2023-06-22T03:25:16;9.13;;;8.13;;
9508;SDS011;4792;50.088;8.122;2023-06-22T03:27:45;10.17;;;9.17;;
9508;SDS011;4792;50.088;8.122;2023-06-22T03:30:14;10.10;;;9.10;;
9508;SDS011;4792;50.088;8.122;2023-06-22T03:32:42;8.97;;;8.07;;
9508;SDS011;4792;50.088;8.122;2023-06-22T03:35:10;10.07;;;8.73;;
9508;SDS011;4792;50.088;8.122;2023-06-22T03:37:40;11.43;;;9.13;;
9508;SDS011;4792;50.088;8.122;2023-06-22T03:40:08;10.17;;;9.17;;
9508;SDS011;4792;50.088;8.122;2023-06-22T03:42:36;9.53;;;8.47;;
9508;SDS011;4792;50.088;8.122;2023-06-22T03:45:06;10.47;;;8.80;;
9508;SDS011;4792;50.088;8.122;2023-06-22T03:47:35;11.10;;;9.73;;
9508;SDS011;4792;50.088;8.122;2023-06-22T03:50:03;11.07;;;9.87;;
9508;SDS011;4792;50.088;8.122;2023-06-22T03:52:32;9.47;;;8.47;;
9508;SDS011;4792;50.088;8.122;2023-06-22T03:55:00;10.70;;;8.50;;
9508;SDS011;4792;50.088;8.122;2023-06-22T03:57:28;10.27;;;8.30;;
9508;SDS011;4792;50.088;8.122;2023-06-22T03:59:56;10.30;;;9.20;;
9508;SDS011;4792;50.088;8.122;2023-06-22T04:02:25;8.90;;;8.00;;
9508;SDS011;4792;50.088;8.122;2023-06-22T04:04:53;9.67;;;8.70;;
9508;SDS011;4792;50.088;8.122;2023-06-22T04:07:22;10.43;;;9.37;;
9508;SDS011;4792;50.088;8.122;2023-06-22T04:09:49;9.57;;;8.50;;
9508;SDS011;4792;50.088;8.122;2023-06-22T04:12:17;10.07;;;8.83;;
9508;SDS011;4792;50.088;8.122;2023-06-22T04:14:45;10.40;;;8.67;;
9508;SDS011;4792;50.088;8.122;2023-06-22T04:17:13;9.87;;;8.63;;
9508;SDS011;4792;50.088;8.122;2023-06-22T04:19:42;9.67;;;8.27;;
9508;SDS011;4792;50.088;8.122;2023-06-22T04:22:10;11.80;;;9.20;;
9508;SDS011;4792;50.088;8.122;2023-06-22T04:24:38;10.00;;;8.73;;
9508;SDS011;4792;50.088;8.122;2023-06-22T04:27:06;10.47;;;8.37;;
9508;SDS011;4792;50.088;8.122;2023-06-22T04:29:34;9.93;;;7.67;;
9508;SDS011;4792;50.088;8.122;2023-06-22T04:32:02;9.10;;;8.20;;
9508;SDS011;4792;50.088;8.122;2023-06-22T04:34:31;10.27;;;8.30;;
9508;SDS011;4792;50.088;8.122;2023-06-22T04:37:01;10.10;;;8.83;;
9508;SDS011;4792;50.088;8.122;2023-06-22T04:39:29;8.93;;;8.03;;
9508;SDS011;4792;50.088;8.122;2023-06-22T04:41:57;9.67;;;8.67;;
9508;SDS011;4792;50.088;8.122;2023-06-22T04:44:27;9.10;;;8.20;;
9508;SDS011;4792;50.088;8.122;2023-06-22T04:46:55;9.00;;;8.10;;
9508;SDS011;4792;50.088;8.122;2023-06-22T04:49:27;9.47;;;8.43;;
9508;SDS011;4792;50.088;8.122;2023-06-22T04:52:00;9.03;;;8.13;;
9508;SDS011;4792;50.088;8.122;2023-06-22T04:54:29;10.07;;;8.13;;
9508;SDS011;4792;50.088;8.122;2023-06-22T04:56:59;9.30;;;8.47;;
9508;SDS011;4792;50.088;8.122;2023-06-22T04:59:27;9.30;;;8.23;;
9508;SDS011;4792;50.088;8.122;2023-06-22T05:01:56;8.20;;;7.40;;
9508;SDS011;4792;50.088;8.122;2023-06-22T05:04:25;9.20;;;8.10;;
9508;SDS011;4792;50.088;8.122;2023-06-22T05:06:54;9.03;;;8.10;;
9508;SDS011;4792;50.088;8.122;2023-06-22T05:09:24;8.60;;;7.03;;
9508;SDS011;4792;50.088;8.122;2023-06-22T05:11:52;9.13;;;8.30;;
9508;SDS011;4792;50.088;8.122;2023-06-22T05:14:20;9.23;;;8.13;;
9508;SDS011;4792;50.088;8.122;2023-06-22T05:16:48;9.73;;;8.70;;
9508;SDS011;4792;50.088;8.122;2023-06-22T05:19:18;9.80;;;8.07;;
9508;SDS011;4792;50.088;8.122;2023-06-22T05:21:46;10.27;;;8.48;;
9508;SDS011;4792;50.088;8.122;2023-06-22T05:24:14;11.18;;;7.57;;
9508;SDS011;4792;50.088;8.122;2023-06-22T05:26:43;10.77;;;8.60;;
9508;SDS011;4792;50.088;8.122;2023-06-22T05:29:11;9.85;;;8.57;;
9508;SDS011;4792;50.088;8.122;2023-06-22T05:31:39;11.63;;;8.90;;
9508;SDS011;4792;50.088;8.122;2023-06-22T05:34:08;9.60;;;8.60;;
9508;SDS011;4792;50.088;8.122;2023-06-22T05:36:35;9.27;;;8.30;;
9508;SDS011;4792;50.088;8.122;2023-06-22T05:39:10;9.03;;;8.03;;
9508;SDS011;4792;50.088;8.122;2023-06-22T05:41:38;10.77;;;8.33;;
9508;SDS011;4792;50.088;8.122;2023-06-22T05:44:08;9.55;;;7.97;;
9508;SDS011;4792;50.088;8.122;2023-06-22T05:46:36;8.75;;;7.90;;
9508;SDS011;4792;50.088;8.122;2023-06-22T05:49:03;9.77;;;8.65;;
9508;SDS011;4792;50.088;8.122;2023-06-22T05:51:31;9.93;;;8.25;;
9508;SDS011;4792;50.088;8.122;2023-06-22T05:53:59;10.85;;;8.80;;
9508;SDS011;4792;50.088;8.122;2023-06-22T05:56:27;10.63;;;8.85;;
9508;SDS011;4792;50.088;8.122;2023-06-22T05:58:55;9.63;;;8.25;;
9508;SDS011;4792;50.088;8.122;2023-06-22T06:01:24;9.98;;;8.98;;
9508;SDS011;4792;50.088;8.122;2023-06-22T06:03:53;10.57;;;8.70;;
9508;SDS011;4792;50.088;8.122;2023-06-22T06:06:21;11.13;;;8.48;;
9508;SDS011;4792;50.088;8.122;2023-06-22T06:08:55;8.93;;;8.02;;
9508;SDS011;4792;50.088;8.122;2023-06-22T06:11:22;8.95;;;8.05;;
9508;SDS011;4792;50.088;8.122;2023-06-22T06:13:50;10.23;;;8.65;;
9508;SDS011;4792;50.088;8.122;2023-06-22T06:16:18;9.88;;;8.73;;
9508;SDS011;4792;50.088;8.122;2023-06-22T06:18:48;10.52;;;9.23;;
9508;SDS011;4792;50.088;8.122;2023-06-22T06:21:16;9.52;;;8.43;;
9508;SDS011;4792;50.088;8.122;2023-06-22T06:23:44;11.35;;;8.75;;
9508;SDS011;4792;50.088;8.122;2023-06-22T06:26:13;10.45;;;9.40;;
9508;SDS011;4792;50.088;8.122;2023-06-22T06:28:43;9.40;;;8.40;;
9508;SDS011;4792;50.088;8.122;2023-06-22T06:31:11;9.30;;;8.32;;
9508;SDS011;4792;50.088;8.122;2023-06-22T06:33:43;9.98;;;7.97;;
9508;SDS011;4792;50.088;8.122;2023-06-22T06:36:12;11.10;;;8.25;;
9508;SDS011;4792;50.088;8.122;2023-06-22T06:38:41;12.13;;;8.93;;
9508;SDS011;4792;50.088;8.122;2023-06-22T06:41:09;12.25;;;9.55;;
9508;SDS011;4792;50.088;8.122;2023-06-22T06:43:37;9.93;;;8.73;;
9508;SDS011;4792;50.088;8.122;2023-06-22T06:46:05;10.85;;;9.20;;
9508;SDS011;4792;50.088;8.122;2023-06-22T06:48:32;9.02;;;8.13;;
9508;SDS011;4792;50.088;8.122;2023-06-22T06:51:00;9.63;;;8.73;;
9508;SDS011;4792;50.088;8.122;2023-06-22T06:53:29;10.70;;;8.68;;
9508;SDS011;4792;50.088;8.122;2023-06-22T06:55:57;12.35;;;8.65;;
9508;SDS011;4792;50.088;8.122;2023-06-22T06:58:25;10.75;;;8.93;;
9508;SDS011;4792;50.088;8.122;2023-06-22T07:00:53;11.25;;;9.38;;
9508;SDS011;4792;50.088;8.122;2023-06-22T07:03:21;10.95;;;9.20;;
9508;SDS011;4792;50.088;8.122;2023-06-22T07:05:49;12.15;;;9.45;;
9508;SDS011;4792;50.088;8.122;2023-06-22T07:08:17;9.85;;;8.85;;
9508;SDS011;4792;50.088;8.122;2023-06-22T07:10:46;11.15;;;9.40;;
9508;SDS011;4792;50.088;8.122;2023-06-22T07:13:14;9.60;;;8.60;;
9508;SDS011;4792;50.088;8.122;2023-06-22T07:15:42;9.95;;;8.90;;
9508;SDS011;4792;50.088;8.122;2023-06-22T07:18:10;10.60;;;8.85;;
9508;SDS011;4792;50.088;8.122;2023-06-22T07:20:38;10.90;;;9.68;;
9508;SDS011;4792;50.088;8.122;2023-06-22T07:23:07;10.65;;;8.60;;
9508;SDS011;4792;50.088;8.122;2023-06-22T07:25:35;10.30;;;8.43;;
9508;SDS011;4792;50.088;8.122;2023-06-22T07:28:05;13.73;;;9.10;;
9508;SDS011;4792;50.088;8.122;2023-06-22T07:30:34;10.88;;;9.10;;
9508;SDS011;4792;50.088;8.122;2023-06-22T07:33:02;10.00;;;9.00;;
9508;SDS011;4792;50.088;8.122;2023-06-22T07:35:32;10.15;;;9.15;;
9508;SDS011;4792;50.088;8.122;2023-06-22T07:38:00;9.50;;;8.60;;
9508;SDS011;4792;50.088;8.122;2023-06-22T07:40:31;9.88;;;8.88;;
9508;SDS011;4792;50.088;8.122;2023-06-22T07:43:00;9.40;;;8.50;;
9508;SDS011;4792;50.088;8.122;2023-06-22T07:45:29;10.82;;;9.20;;
9508;SDS011;4792;50.088;8.122;2023-06-22T07:47:59;15.70;;;9.63;;
9508;SDS011;4792;50.088;8.122;2023-06-22T07:50:27;9.85;;;8.85;;
9508;SDS011;4792;50.088;8.122;2023-06-22T07:52:56;10.23;;;9.13;;
9508;SDS011;4792;50.088;8.122;2023-06-22T07:55:24;10.00;;;8.98;;
9508;SDS011;4792;50.088;8.122;2023-06-22T07:57:52;9.77;;;8.77;;
9508;SDS011;4792;50.088;8.122;2023-06-22T08:00:20;9.70;;;8.68;;
9508;SDS011;4792;50.088;8.122;2023-06-22T08:02:49;10.52;;;8.93;;
9508;SDS011;4792;50.088;8.122;2023-06-22T08:05:18;10.55;;;9.18;;
9508;SDS011;4792;50.088;8.122;2023-06-22T08:07:48;10.75;;;9.63;;
9508;SDS011;4792;50.088;8.122;2023-06-22T08:10:17;11.68;;;9.85;;
9508;SDS011;4792;50.088;8.122;2023-06-22T08:12:44;11.10;;;9.90;;
9508;SDS011;4792;50.088;8.122;2023-06-22T08:15:12;12.10;;;8.77;;
9508;SDS011;4792;50.088;8.122;2023-06-22T08:17:40;10.13;;;8.48;;
9508;SDS011;4792;50.088;8.122;2023-06-22T08:20:10;10.70;;;8.18;;
9508;SDS011;4792;50.088;8.122;2023-06-22T08:22:39;11.95;;;9.82;;
9508;SDS011;4792;50.088;8.122;2023-06-22T08:25:11;9.93;;;8.93;;
9508;SDS011;4792;50.088;8.122;2023-06-22T08:27:44;9.63;;;8.52;;
9508;SDS011;4792;50.088;8.122;2023-06-22T08:30:15;10.05;;;8.32;;
9508;SDS011;4792;50.088;8.122;2023-06-22T08:32:43;9.30;;;8.40;;
9508;SDS011;4792;50.088;8.122;2023-06-22T08:35:18;10.88;;;8.90;;
9508;SDS011;4792;50.088;8.122;2023-06-22T08:37:47;9.27;;;8.27;;
9508;SDS011;4792;50.088;8.122;2023-06-22T08:40:21;9.43;;;8.43;;
9508;SDS011;4792;50.088;8.122;2023-06-22T08:42:50;11.07;;;8.20;;
9508;SDS011;4792;50.088;8.122;2023-06-22T08:45:19;11.43;;;9.60;;
9508;SDS011;4792;50.088;8.122;2023-06-22T08:47:47;12.18;;;9.55;;
9508;SDS011;4792;50.088;8.122;2023-06-22T08:50:15;9.90;;;8.90;;
9508;SDS011;4792;50.088;8.122;2023-06-22T08:52:44;9.55;;;8.23;;
9508;SDS011;4792;50.088;8.122;2023-06-22T08:55:12;10.10;;;9.10;;
9508;SDS011;4792;50.088;8.122;2023-06-22T08:57:41;14.23;;;12.70;;
9508;SDS011;4792;50.088;8.122;2023-06-22T09:00:09;13.02;;;10.07;;
9508;SDS011;4792;50.088;8.122;2023-06-22T09:02:45;12.50;;;8.65;;
9508;SDS011;4792;50.088;8.122;2023-06-22T09:05:13;15.52;;;8.90;;
9508;SDS011;4792;50.088;8.122;2023-06-22T09:07:42;9.43;;;8.38;;
9508;SDS011;4792;50.088;8.122;2023-06-22T09:10:11;9.15;;;8.25;;
9508;SDS011;4792;50.088;8.122;2023-06-22T09:12:39;10.10;;;9.05;;
9508;SDS011;4792;50.088;8.122;2023-06-22T09:15:09;11.15;;;9.18;;
9508;SDS011;4792;50.088;8.122;2023-06-22T09:17:42;9.15;;;8.20;;
9508;SDS011;4792;50.088;8.122;2023-06-22T09:20:13;11.55;;;9.52;;
9508;SDS011;4792;50.088;8.122;2023-06-22T09:22:41;10.80;;;9.75;;
9508;SDS011;4792;50.088;8.122;2023-06-22T09:25:09;9.45;;;8.23;;
9508;SDS011;4792;50.088;8.122;2023-06-22T09:27:38;10.38;;;8.85;;
9508;SDS011;4792;50.088;8.122;2023-06-22T09:30:06;11.90;;;8.70;;
9508;SDS011;4792;50.088;8.122;2023-06-22T09:32:35;10.10;;;9.18;;
9508;SDS011;4792;50.088;8.122;2023-06-22T09:35:04;11.57;;;9.30;;
9508;SDS011;4792;50.088;8.122;2023-06-22T09:37:33;9.35;;;8.43;;
9508;SDS011;4792;50.088;8.122;2023-06-22T09:40:01;11.25;;;9.13;;
9508;SDS011;4792;50.088;8.122;2023-06-22T09:42:34;11.18;;;9.98;;
9508;SDS011;4792;50.088;8.122;2023-06-22T09:45:04;11.93;;;9.65;;
9508;SDS011;4792;50.088;8.122;2023-06-22T09:47:32;11.65;;;9.80;;
9508;SDS011;4792;50.088;8.122;2023-06-22T09:50:00;12.10;;;9.18;;
9508;SDS011;4792;50.088;8.122;2023-06-22T09:52:28;10.18;;;9.18;;
9508;SDS011;4792;50.088;8.122;2023-06-22T09:55:12;10.70;;;8.93;;
9508;SDS011;4792;50.088;8.122;2023-06-22T09:57:41;11.20;;;9.73;;
9508;SDS011;4792;50.088;8.122;2023-06-22T10:00:14;14.70;;;10.00;;
9508;SDS011;4792;50.088;8.122;2023-06-22T10:02:44;10.52;;;9.38;;
9508;SDS011;4792;50.088;8.122;2023-06-22T10:05:12;11.50;;;10.00;;
9508;SDS011;4792;50.088;8.122;2023-06-22T10:07:40;11.85;;;10.23;;
9508;SDS011;4792;50.088;8.122;2023-06-22T10:10:11;16.55;;;10.52;;
9508;SDS011;4792;50.088;8.122;2023-06-22T10:12:45;10.63;;;9.52;;
9508;SDS011;4792;50.088;8.122;2023-06-22T10:15:16;9.63;;;8.73;;
9508;SDS011;4792;50.088;8.122;2023-06-22T10:17:44;11.13;;;9.93;;
9508;SDS011;4792;50.088;8.122;2023-06-22T10:20:12;11.85;;;9.88;;
9508;SDS011;4792;50.088;8.122;2023-06-22T10:22:41;12.25;;;9.73;;
9508;SDS011;4792;50.088;8.122;2023-06-22T10:25:10;10.75;;;9.45;;
9508;SDS011;4792;50.088;8.122;2023-06-22T10:27:39;10.80;;;9.23;;
9508;SDS011;4792;50.088;8.122;2023-06-22T10:30:08;13.10;;;9.70;;
9508;SDS011;4792;50.088;8.122;2023-06-22T10:32:38;10.38;;;9.27;;
9508;SDS011;4792;50.088;8.122;2023-06-22T10:35:07;12.48;;;9.73;;
9508;SDS011;4792;50.088;8.122;2023-06-22T10:37:37;12.73;;;8.70;;
9508;SDS011;4792;50.088;8.122;2023-06-22T10:40:05;9.50;;;8.48;;
9508;SDS011;4792;50.088;8.122;2023-06-22T10:42:34;10.20;;;9.20;;
9508;SDS011;4792;50.088;8.122;2023-06-22T10:45:02;14.25;;;9.27;;
9508;SDS011;4792;50.088;8.122;2023-06-22T10:47:30;10.55;;;9.43;;
9508;SDS011;4792;50.088;8.122;2023-06-22T10:50:00;9.43;;;8.45;;
9508;SDS011;4792;50.088;8.122;2023-06-22T10:52:28;12.43;;;8.98;;
9508;SDS011;4792;50.088;8.122;2023-06-22T10:54:57;10.05;;;8.38;;
9508;SDS011;4792;50.088;8.122;2023-06-22T10:57:25;10.25;;;9.13;;
9508;SDS011;4792;50.088;8.122;2023-06-22T10:59:53;10.75;;;8.90;;
9508;SDS011;4792;50.088;8.122;2023-06-22T11:02:21;9.32;;;8.38;;
9508;SDS011;4792;50.088;8.122;2023-06-22T11:04:49;13.55;;;8.60;;
9508;SDS011;4792;50.088;8.122;2023-06-22T11:07:19;11.60;;;9.10;;
9508;SDS011;4792;50.088;8.122;2023-06-22T11:09:47;10.35;;;9.15;;
9508;SDS011;4792;50.088;8.122;2023-06-22T11:12:15;9.20;;;8.30;;
9508;SDS011;4792;50.088;8.122;2023-06-22T11:14:42;12.18;;;9.45;;
9508;SDS011;4792;50.088;8.122;2023-06-22T11:17:10;9.45;;;8.43;;
9508;SDS011;4792;50.088;8.122;2023-06-22T11:19:39;9.63;;;8.68;;
9508;SDS011;4792;50.088;8.122;2023-06-22T11:22:07;11.18;;;8.70;;
9508;SDS011;4792;50.088;8.122;2023-06-22T11:24:36;9.82;;;8.00;;
9508;SDS011;4792;50.088;8.122;2023-06-22T11:27:04;9.60;;;8.63;;
9508;SDS011;4792;50.088;8.122;2023-06-22T11:29:32;9.73;;;8.68;;
9508;SDS011;4792;50.088;8.122;2023-06-22T11:32:04;9.48;;;7.65;;
9508;SDS011;4792;50.088;8.122;2023-06-22T11:34:33;8.85;;;7.68;;
9508;SDS011;4792;50.088;8.122;2023-06-22T11:37:01;10.55;;;7.47;;
9508;SDS011;4792;50.088;8.122;2023-06-22T11:39:29;9.63;;;7.40;;
9508;SDS011;4792;50.088;8.122;2023-06-22T11:42:09;8.80;;;7.63;;
9508;SDS011;4792;50.088;8.122;2023-06-22T11:44:37;7.95;;;7.13;;
9508;SDS011;4792;50.088;8.122;2023-06-22T11:47:05;9.20;;;6.85;;
9508;SDS011;4792;50.088;8.122;2023-06-22T11:49:33;13.35;;;6.97;;
9508;SDS011;4792;50.088;8.122;2023-06-22T11:52:01;7.95;;;6.95;;
9508;SDS011;4792;50.088;8.122;2023-06-22T11:54:29;13.23;;;7.43;;
9508;SDS011;4792;50.088;8.122;2023-06-22T11:56:57;12.68;;;6.60;;
9508;SDS011;4792;50.088;8.122;2023-06-22T11:59:27;9.90;;;6.65;;
9508;SDS011;4792;50.088;8.122;2023-06-22T12:01:55;8.85;;;6.82;;
9508;SDS011;4792;50.088;8.122;2023-06-22T12:04:24;9.75;;;7.07;;
9508;SDS011;4792;50.088;8.122;2023-06-22T12:06:52;11.13;;;7.00;;
9508;SDS011;4792;50.088;8.122;2023-06-22T12:09:20;11.65;;;6.93;;
9508;SDS011;4792;50.088;8.122;2023-06-22T12:11:48;9.48;;;6.95;;
9508;SDS011;4792;50.088;8.122;2023-06-22T12:14:16;10.75;;;6.90;;
9508;SDS011;4792;50.088;8.122;2023-06-22T12:16:45;11.13;;;7.40;;
9508;SDS011;4792;50.088;8.122;2023-06-22T12:19:13;7.97;;;6.80;;
9508;SDS011;4792;50.088;8.122;2023-06-22T12:21:41;12.10;;;7.07;;
9508;SDS011;4792;50.088;8.122;2023-06-22T12:24:11;9.80;;;7.75;;
9508;SDS011;4792;50.088;8.122;2023-06-22T12:26:39;11.10;;;7.47;;
9508;SDS011;4792;50.088;8.122;2023-06-22T12:29:07;14.65;;;7.30;;
9508;SDS011;4792;50.088;8.122;2023-06-22T12:31:35;10.63;;;6.93;;
9508;SDS011;4792;50.088;8.122;2023-06-22T12:34:06;10.00;;;7.50;;
9508;SDS011;4792;50.088;8.122;2023-06-22T12:36:34;8.85;;;7.20;;
9508;SDS011;4792;50.088;8.122;2023-06-22T12:39:02;11.52;;;7.32;;
9508;SDS011;4792;50.088;8.122;2023-06-22T12:41:30;10.18;;;7.10;;
9508;SDS011;4792;50.088;8.122;2023-06-22T12:43:58;11.48;;;7.18;;
9508;SDS011;4792;50.088;8.122;2023-06-22T12:46:26;9.85;;;7.35;;
9508;SDS011;4792;50.088;8.122;2023-06-22T12:48:54;8.43;;;7.00;;
9508;SDS011;4792;50.088;8.122;2023-06-22T12:51:23;9.30;;;7.57;;
9508;SDS011;4792;50.088;8.122;2023-06-22T12:53:51;11.45;;;7.38;;
9508;SDS011;4792;50.088;8.122;2023-06-22T12:56:19;13.73;;;7.43;;
9508;SDS011;4792;50.088;8.122;2023-06-22T12:58:47;11.00;;;7.32;;
9508;SDS011;4792;50.088;8.122;2023-06-22T13:01:15;9.07;;;7.32;;
9508;SDS011;4792;50.088;8.122;2023-06-22T13:03:44;10.27;;;7.05;;
9508;SDS011;4792;50.088;8.122;2023-06-22T13:06:12;14.07;;;7.57;;
9508;SDS011;4792;50.088;8.122;2023-06-22T13:08:42;11.48;;;6.93;;
9508;SDS011;4792;50.088;8.122;2023-06-22T13:11:29;10.48;;;6.82;;
9508;SDS011;4792;50.088;8.122;2023-06-22T13:13:57;12.45;;;6.70;;
9508;SDS011;4792;50.088;8.122;2023-06-22T13:16:25;9.30;;;6.80;;
9508;SDS011;4792;50.088;8.122;2023-06-22T13:18:53;18.73;;;12.45;;
9508;SDS011;4792;50.088;8.122;2023-06-22T13:21:21;12.52;;;7.60;;
9508;SDS011;4792;50.088;8.122;2023-06-22T13:23:50;11.32;;;7.40;;
9508;SDS011;4792;50.088;8.122;2023-06-22T13:26:18;16.27;;;6.80;;
9508;SDS011;4792;50.088;8.122;2023-06-22T13:28:46;12.30;;;7.20;;
9508;SDS011;4792;50.088;8.122;2023-06-22T13:31:14;10.07;;;7.00;;
9508;SDS011;4792;50.088;8.122;2023-06-22T13:33:42;15.43;;;6.90;;
9508;SDS011;4792;50.088;8.122;2023-06-22T13:36:12;12.73;;;7.38;;
9508;SDS011;4792;50.088;8.122;2023-06-22T13:38:39;10.25;;;7.30;;
9508;SDS011;4792;50.088;8.122;2023-06-22T13:41:09;10.57;;;7.32;;
9508;SDS011;4792;50.088;8.122;2023-06-22T13:43:37;16.15;;;7.95;;
9508;SDS011;4792;50.088;8.122;2023-06-22T13:46:04;8.90;;;7.68;;
9508;SDS011;4792;50.088;8.122;2023-06-22T13:48:32;14.35;;;7.90;;
9508;SDS011;4792;50.088;8.122;2023-06-22T13:51:00;9.70;;;7.07;;
9508;SDS011;4792;50.088;8.122;2023-06-22T13:53:29;11.27;;;6.97;;
9508;SDS011;4792;50.088;8.122;2023-06-22T13:55:57;15.40;;;7.30;;
9508;SDS011;4792;50.088;8.122;2023-06-22T13:58:26;12.98;;;7.13;;
9508;SDS011;4792;50.088;8.122;2023-06-22T14:00:54;12.25;;;7.20;;
9508;SDS011;4792;50.088;8.122;2023-06-22T14:03:22;10.50;;;6.82;;
9508;SDS011;4792;50.088;8.122;2023-06-22T14:05:51;11.32;;;7.05;;
9508;SDS011;4792;50.088;8.122;2023-06-22T14:08:20;12.50;;;7.53;;
9508;SDS011;4792;50.088;8.122;2023-06-22T14:10:52;13.75;;;6.60;;
9508;SDS011;4792;50.088;8.122;2023-06-22T14:13:21;11.13;;;6.03;;
9508;SDS011;4792;50.088;8.122;2023-06-22T14:15:50;11.23;;;6.28;;
9508;SDS011;4792;50.088;8.122;2023-06-22T14:18:18;12.80;;;5.60;;
9508;SDS011;4792;50.088;8.122;2023-06-22T14:20:48;11.32;;;5.35;;
9508;SDS011;4792;50.088;8.122;2023-06-22T14:23:16;16.33;;;6.32;;
9508;SDS011;4792;50.088;8.122;2023-06-22T14:25:44;13.85;;;5.70;;
9508;SDS011;4792;50.088;8.122;2023-06-22T14:28:12;14.35;;;6.03;;
9508;SDS011;4792;50.088;8.122;2023-06-22T14:30:40;11.05;;;5.95;;
9508;SDS011;4792;50.088;8.122;2023-06-22T14:33:09;13.00;;;6.20;;
9508;SDS011;4792;50.088;8.122;2023-06-22T14:35:37;12.93;;;5.47;;
9508;SDS011;4792;50.088;8.122;2023-06-22T14:38:05;18.10;;;6.03;;
9508;SDS011;4792;50.088;8.122;2023-06-22T14:40:33;15.02;;;5.50;;
9508;SDS011;4792;50.088;8.122;2023-06-22T14:43:18;15.52;;;6.07;;
9508;SDS011;4792;50.088;8.122;2023-06-22T14:45:46;11.93;;;6.13;;
9508;SDS011;4792;50.088;8.122;2023-06-22T14:48:18;12.73;;;5.72;;
9508;SDS011;4792;50.088;8.122;2023-06-22T14:50:45;20.02;;;5.90;;
9508;SDS011;4792;50.088;8.122;2023-06-22T14:53:13;12.07;;;5.55;;
9508;SDS011;4792;50.088;8.122;2023-06-22T14:55:41;12.73;;;5.75;;
9508;SDS011;4792;50.088;8.122;2023-06-22T14:58:09;15.10;;;5.95;;
9508;SDS011;4792;50.088;8.122;2023-06-22T15:00:38;15.38;;;5.90;;
9508;SDS011;4792;50.088;8.122;2023-06-22T15:03:06;11.65;;;6.50;;
9508;SDS011;4792;50.088;8.122;2023-06-22T15:05:39;15.43;;;5.60;;
9508;SDS011;4792;50.088;8.122;2023-06-22T15:08:07;14.43;;;5.10;;
9508;SDS011;4792;50.088;8.122;2023-06-22T15:10:37;14.88;;;5.38;;
9508;SDS011;4792;50.088;8.122;2023-06-22T15:13:05;10.63;;;5.10;;
9508;SDS011;4792;50.088;8.122;2023-06-22T15:15:33;10.13;;;5.80;;
9508;SDS011;4792;50.088;8.122;2023-06-22T15:18:01;15.38;;;5.43;;